メインページ
METAR-TAF:

METAR-TAF

空港 :

サンパウロ, サンパウロ州, ブラジル

コンゴーニャス空港

緯度: 23-37S, 経度: 046-39W, 海抜: 803m

現時点の気象観測

当レポートは28分前の17:00(UTC)に作成
の風 5kt
気温 20°C
湿度 64%
気圧 1024 hPa
視程10km以上
1,500メートル以下は雲なし、積乱雲なし

METAR: SBSP 231700Z 10005KT CAVOK 20/13 Q1024

時間: 14:28 (17:28 UTC)

予報

当レポートは7時間23分前の10:05(UTC)に作成
予報は23日の 12時(UTC)から 24日の 12時(UTC)まで有効
の風 10kt
視程10km以上
高度1000ftの千切れ雲あり
23日の 13時(UTC)から 23日の 15時(UTC)まで徐々に
の風 5kt
視程10km以上
1,500メートル以下は雲なし、積乱雲なし
23日の 18時(UTC)から 23日の 20時(UTC)まで徐々に
南/南東の風 10kt
確率 30%
23日の 21時(UTC)から 24日の 01時(UTC)まで
視程: 7000m
高度1000ftの千切れ雲あり
24日の 01時(UTC)から 24日の 03時(UTC)まで徐々に
の風 5kt
高度1200ftの雲はほとんどない
確率 30%
24日の 08時(UTC)から 24日の 11時(UTC)まで
高度600ftの千切れ雲あり

TAF: SBSP 231005Z 2312/2412 08010KT 9999 BKN010 TX23/2317Z TN13/2409Z BECMG 2313/2315 08005KT CAVOK BECMG 2318/2320 15010KT PROB30 2321/2401 7000 BKN010 BECMG 2401/2403 08005KT FEW012 PROB30 2408/2411 BKN006 RMK PGN

4,000以上の空港の気象観測と天気予報(METAR報とTAF報)

利用可能な観測所は地図上に黄色い丸と赤い丸で示す。

丸の上にカーソルを重ねると観測所名を参照できる。

次にクリックすると気象観測と天気予報を参照できる。

マップの切り替え:黒色「×」印の緑ボタンをクリックして拡大、「-」印の緑ボタンをクリックして縮小、緑色の三角印をクリックして隣りの地図に切り替え


METAR-TAF: